Time;durP1;ratioP1;P1;durP2;ratioP2;P2;SDS_P1;SDS_P2;PMS_P1;PMS_P2;Temp;Humidity;BMP_temperature;BMP_pressure;BME280_temperature;BME280_humidity;BME280_pressure;Samples;Min_cycle;Max_cycle;Signal;HPM_P1;HPM_P2
2024/01/24 00:00:06;;;;;;;6.97;1.50;;;;;;;-2.61;100.00;100343.41;5110597;28;20446;-56
2024/01/24 00:02:34;;;;;;;1.70;1.60;;;;;;;-2.75;100.00;100337.53;5110440;28;20451;-56
2024/01/24 00:05:01;;;;;;;2.20;1.47;;;;;;;-2.78;100.00;100347.53;5110461;28;20454;-56
2024/01/24 00:07:28;;;;;;;3.20;1.33;;;;;;;-2.71;100.00;100358.38;5110777;28;20483;-56
2024/01/24 00:09:55;;;;;;;1.23;1.10;;;;;;;-2.68;100.00;100358.41;5110374;28;20527;-56
2024/01/24 00:12:22;;;;;;;3.80;1.50;;;;;;;-2.67;100.00;100358.41;5110523;28;20452;-56
2024/01/24 00:14:48;;;;;;;1.37;0.83;;;;;;;-2.64;100.00;100363.44;5110558;28;20454;-56
2024/01/24 00:17:15;;;;;;;4.67;1.57;;;;;;;-2.70;100.00;100365.91;5110657;28;20451;-56
2024/01/24 00:19:43;;;;;;;0.93;0.93;;;;;;;-2.68;100.00;100369.25;5110270;28;20447;-56
2024/01/24 00:22:11;;;;;;;1.60;1.43;;;;;;;-2.68;100.00;100378.41;5110414;28;20447;-56
2024/01/24 00:24:38;;;;;;;2.13;1.77;;;;;;;-2.72;100.00;100377.59;5110413;28;20455;-56
2024/01/24 00:27:05;;;;;;;5.00;1.73;;;;;;;-2.71;100.00;100374.25;5109987;28;20513;-56
2024/01/24 00:29:32;;;;;;;1.13;0.90;;;;;;;-2.76;100.00;100370.91;5109958;28;20534;-56
2024/01/24 00:31:59;;;;;;;9.67;1.30;;;;;;;-2.71;100.00;100378.41;5109819;28;20447;-56
2024/01/24 00:34:25;;;;;;;2.77;1.77;;;;;;;-2.68;100.00;100379.25;5110043;28;20439;-56
2024/01/24 00:36:54;;;;;;;0.77;0.77;;;;;;;-2.68;100.00;100381.75;5109753;28;20459;-56
2024/01/24 00:39:20;;;;;;;2.37;1.10;;;;;;;-2.73;100.00;100375.94;5109830;28;20458;-56
2024/01/24 00:41:48;;;;;;;1.23;1.13;;;;;;;-2.85;100.00;100370.88;5109525;28;20451;-56
2024/01/24 00:44:15;;;;;;;1.60;1.23;;;;;;;-2.86;100.00;100380.03;5109898;28;20466;-56
2024/01/24 00:46:42;;;;;;;1.23;1.13;;;;;;;-2.84;100.00;100378.38;5109675;28;20487;-56
2024/01/24 00:49:10;;;;;;;3.20;1.77;;;;;;;-2.89;100.00;100377.53;5109760;28;20447;-56
2024/01/24 00:51:37;;;;;;;2.73;1.43;;;;;;;-2.92;100.00;100384.19;5109790;28;20485;-56
2024/01/24 00:54:06;;;;;;;3.37;0.83;;;;;;;-2.89;100.00;100379.19;5109716;28;20451;-56
2024/01/24 00:56:33;;;;;;;0.83;0.83;;;;;;;-2.98;100.00;100375.84;5109674;28;20471;-56
2024/01/24 00:59:00;;;;;;;0.77;0.77;;;;;;;-2.98;100.00;100370.81;5109687;28;20820;-56
2024/01/24 01:01:26;;;;;;;1.30;0.93;;;;;;;-2.96;100.00;100374.19;5109381;28;20435;-56
2024/01/24 01:03:53;;;;;;;1.77;0.83;;;;;;;-2.98;100.00;100375.84;5109681;28;20463;-56
2024/01/24 01:06:22;;;;;;;2.43;2.23;;;;;;;-3.00;100.00;100372.47;5109299;28;20847;-56
2024/01/24 01:08:49;;;;;;;0.33;0.33;;;;;;;-3.04;100.00;100370.81;5108946;28;20459;-56
2024/01/24 01:11:18;;;;;;;0.67;0.60;;;;;;;-3.07;100.00;100369.97;5109383;28;20443;-56
2024/01/24 01:13:45;;;;;;;0.87;0.87;;;;;;;-3.11;100.00;100374.13;5109185;28;20454;-56
2024/01/24 01:16:12;;;;;;;0.53;0.53;;;;;;;-3.14;100.00;100379.13;5109400;28;20447;-56
2024/01/24 01:18:38;;;;;;;0.47;0.47;;;;;;;-3.23;100.00;100377.41;5109072;28;20443;-56
2024/01/24 01:21:05;;;;;;;0.87;0.87;;;;;;;-3.26;100.00;100374.91;5109299;28;20956;-56
2024/01/24 01:23:32;;;;;;;1.13;1.03;;;;;;;-3.30;100.00;100368.19;5109069;28;20454;-56
2024/01/24 01:25:59;;;;;;;0.77;0.77;;;;;;;-3.43;100.00;100366.47;5109079;28;20865;-56
2024/01/24 01:28:27;;;;;;;1.27;1.23;;;;;;;-3.46;100.00;100372.28;5109236;28;20497;-57
2024/01/24 01:30:54;;;;;;;0.73;0.50;;;;;;;-3.59;100.00;100365.53;5109251;28;20500;-56
2024/01/24 01:33:21;;;;;;;5.63;1.83;;;;;;;-3.54;100.00;100361.41;5109110;28;20447;-57
2024/01/24 01:35:48;;;;;;;1.80;1.20;;;;;;;-3.56;100.00;100360.56;5109196;28;20451;-56
2024/01/24 01:38:15;;;;;;;1.00;0.87;;;;;;;-3.53;100.00;100363.06;5108965;28;21014;-57
2024/01/24 01:40:41;;;;;;;2.67;1.63;;;;;;;-3.61;100.00;100356.34;5108891;28;21014;-56
2024/01/24 01:43:13;;;;;;;1.63;1.27;;;;;;;-3.88;100.00;100358.69;5108549;28;20470;-56
2024/01/24 01:45:42;;;;;;;0.70;0.70;;;;;;;-3.94;100.00;100358.66;5108942;28;20443;-56
2024/01/24 01:48:09;;;;;;;1.10;0.97;;;;;;;-3.87;100.00;100350.38;5108857;28;20486;-56
2024/01/24 01:50:36;;;;;;;1.27;1.17;;;;;;;-3.99;100.00;100345.28;5108739;28;20465;-56
2024/01/24 01:53:04;;;;;;;0.67;0.67;;;;;;;-3.90;100.00;100355.38;5108901;28;20439;-56
2024/01/24 01:55:32;;;;;;;0.40;0.40;;;;;;;-3.87;100.00;100354.53;5108816;28;20458;-56
2024/01/24 01:58:00;;;;;;;0.77;0.77;;;;;;;-3.83;100.00;100352.91;5108979;28;20462;-56
2024/01/24 02:00:28;;;;;;;0.77;0.77;;;;;;;-3.85;100.00;100352.06;5108862;28;20447;-56
2024/01/24 02:02:56;;;;;;;1.50;0.63;;;;;;;-3.76;100.00;100359.59;5108895;28;20841;-56
2024/01/24 02:05:23;;;;;;;1.37;0.70;;;;;;;-3.70;100.00;100359.63;5108724;28;20887;-56
2024/01/24 02:07:50;;;;;;;4.33;1.20;;;;;;;-3.64;100.00;100367.16;5108669;28;20890;-56
2024/01/24 02:10:18;;;;;;;1.37;0.97;;;;;;;-3.63;100.00;100361.38;5108714;28;20960;-56
2024/01/24 02:12:44;;;;;;;2.73;1.10;;;;;;;-3.60;100.00;100358.88;5108592;28;20833;-56
2024/01/24 02:15:11;;;;;;;2.60;1.53;;;;;;;-3.57;100.00;100353.91;5108572;28;20450;-56
2024/01/24 02:17:38;;;;;;;2.80;1.37;;;;;;;-3.61;100.00;100352.19;5108431;28;20447;-56
2024/01/24 02:20:09;;;;;;;1.37;1.27;;;;;;;-3.56;100.00;100360.56;5108544;28;20451;-56
2024/01/24 02:22:36;;;;;;;1.60;1.03;;;;;;;-3.57;100.00;100368.06;5112259;28;20443;-55
2024/01/24 02:25:05;;;;;;;3.40;2.20;;;;;;;-3.59;100.00;100355.53;5112352;28;20482;-56
2024/01/24 02:27:32;;;;;;;1.13;1.03;;;;;;;-3.60;100.00;100353.88;5112489;28;20563;-57
2024/01/24 02:29:59;;;;;;;1.97;1.63;;;;;;;-3.52;100.00;100362.25;5112782;28;20451;-56
2024/01/24 02:32:26;;;;;;;1.80;1.10;;;;;;;-3.51;100.00;100371.44;5112299;28;20443;-57
2024/01/24 02:34:53;;;;;;;1.83;0.70;;;;;;;-3.52;100.00;100362.25;5112328;28;20455;-56
2024/01/24 02:37:20;;;;;;;1.10;1.00;;;;;;;-3.50;100.00;100367.25;5112478;28;20462;-56
2024/01/24 02:39:47;;;;;;;1.03;0.80;;;;;;;-3.44;100.00;100360.63;5112575;28;20458;-56
2024/01/24 02:42:16;;;;;;;1.77;1.40;;;;;;;-3.42;100.00;100356.47;5112080;28;20528;-56
2024/01/24 02:44:42;;;;;;;1.83;1.13;;;;;;;-3.32;100.00;100354.00;5112017;28;20447;-56
2024/01/24 02:47:09;;;;;;;0.77;0.73;;;;;;;-3.30;100.00;100367.38;5111917;28;20478;-56
2024/01/24 02:49:36;;;;;;;0.40;0.40;;;;;;;-3.31;100.00;100369.03;5111908;28;20677;-56
2024/01/24 02:52:03;;;;;;;3.30;1.13;;;;;;;-3.28;100.00;100370.72;5112071;28;20728;-56
2024/01/24 02:54:30;;;;;;;1.60;1.00;;;;;;;-3.31;100.00;100376.53;5112165;28;20454;-56
2024/01/24 02:56:57;;;;;;;1.60;1.10;;;;;;;-3.31;100.00;100365.72;5111886;28;20972;-56
2024/01/24 02:59:27;;;;;;;1.73;1.57;;;;;;;-3.32;100.00;100364.00;5111946;28;20668;-56
2024/01/24 03:01:54;;;;;;;1.20;1.10;;;;;;;-3.65;100.00;100368.00;5111806;27;20466;-56
2024/01/24 03:04:20;;;;;;;1.90;1.00;;;;;;;-3.72;100.00;100363.81;5111896;28;20471;-56
2024/01/24 03:06:47;;;;;;;1.57;1.13;;;;;;;-4.00;100.00;100368.59;5111717;28;20451;-56
2024/01/24 03:09:14;;;;;;;2.13;0.87;;;;;;;-4.02;100.00;100372.75;5111976;28;20578;-56
2024/01/24 03:11:41;;;;;;;1.53;1.43;;;;;;;-4.17;100.00;100365.13;5111526;28;20477;-56
2024/01/24 03:14:08;;;;;;;2.67;1.57;;;;;;;-4.39;100.00;100357.47;5111513;28;20508;-56
2024/01/24 03:16:36;;;;;;;1.70;1.13;;;;;;;-4.63;100.00;100360.56;5111516;28;20443;-56
2024/01/24 03:19:05;;;;;;;0.33;0.33;;;;;;;-4.80;100.00;100367.88;5111337;28;20470;-56
2024/01/24 03:21:32;;;;;;;2.13;0.97;;;;;;;-4.89;100.00;100377.75;5111567;28;20901;-56
2024/01/24 03:23:59;;;;;;;0.40;0.40;;;;;;;-4.93;100.00;100375.22;5111302;28;20886;-57
2024/01/24 03:26:26;;;;;;;0.60;0.60;;;;;;;-4.99;100.00;100385.94;5111663;28;20462;-56
2024/01/24 03:28:53;;;;;;;0.83;0.83;;;;;;;-4.85;100.00;100384.47;5111304;28;20517;-56
2024/01/24 03:31:20;;;;;;;0.20;0.20;;;;;;;-4.76;100.00;100385.38;5111176;28;20466;-56
2024/01/24 03:33:48;;;;;;;0.40;0.37;;;;;;;-4.79;100.00;100379.53;5111179;28;20451;-56
2024/01/24 03:36:15;;;;;;;1.00;0.43;;;;;;;-5.16;100.00;100384.91;5111109;28;20967;-56
2024/01/24 03:38:43;;;;;;;1.67;1.10;;;;;;;-4.97;100.00;100389.31;5110974;28;20447;-56
2024/01/24 03:41:11;;;;;;;1.20;1.17;;;;;;;-4.93;100.00;100390.19;5111214;28;20444;-56
2024/01/24 03:43:40;;;;;;;1.63;1.53;;;;;;;-4.88;100.00;100391.91;5110699;27;20454;-56
2024/01/24 03:46:07;;;;;;;1.13;0.97;;;;;;;-4.96;100.00;100405.94;5110849;28;20443;-55
2024/01/24 03:48:33;;;;;;;0.47;0.47;;;;;;;-4.72;100.00;100395.41;5110602;28;21047;-56
2024/01/24 03:51:02;;;;;;;1.80;0.63;;;;;;;-4.58;100.00;100398.03;5110917;28;20454;-56
2024/01/24 03:53:28;;;;;;;0.83;0.83;;;;;;;-4.50;100.00;100395.63;5110976;28;20812;-56
2024/01/24 03:55:55;;;;;;;2.27;1.03;;;;;;;-4.43;100.00;100402.34;5110627;28;20945;-56
2024/01/24 03:58:22;;;;;;;1.23;1.23;;;;;;;-4.48;100.00;100407.31;5110703;28;20458;-56
2024/01/24 04:00:52;;;;;;;1.67;1.27;;;;;;;-4.44;100.00;100404.00;5110555;28;20447;-56
2024/01/24 04:03:18;;;;;;;1.60;0.63;;;;;;;-4.42;100.00;100396.53;5110486;28;20443;-56
2024/01/24 04:05:45;;;;;;;2.50;1.77;;;;;;;-4.42;100.00;100387.41;5110689;28;20967;-56
2024/01/24 04:08:13;;;;;;;1.10;1.10;;;;;;;-4.87;100.00;100386.09;5110374;28;20494;-56
2024/01/24 04:10:40;;;;;;;1.43;0.80;;;;;;;-4.99;100.00;100380.97;5110658;28;20526;-56
2024/01/24 04:13:07;;;;;;;0.53;0.53;;;;;;;-4.82;100.00;100391.97;5110588;28;20459;-56
2024/01/24 04:15:34;;;;;;;0.40;0.40;;;;;;;-4.72;100.00;100404.53;5110285;28;20490;-56
2024/01/24 04:18:01;;;;;;;1.37;1.27;;;;;;;-4.61;100.00;100413.81;5110344;28;20525;-56
2024/01/24 04:20:28;;;;;;;1.57;1.17;;;;;;;-4.95;100.00;100410.09;5110265;28;20457;-56
2024/01/24 04:22:55;;;;;;;1.00;1.00;;;;;;;-5.10;100.00;100412.41;5110246;28;20504;-57
2024/01/24 04:25:23;;;;;;;0.50;0.50;;;;;;;-4.92;100.00;100417.59;5110027;28;20450;-56
2024/01/24 04:27:50;;;;;;;0.40;0.40;;;;;;;-4.90;100.00;100415.16;5109983;28;20494;-56
2024/01/24 04:30:17;;;;;;;3.17;1.67;;;;;;;-4.80;100.00;100407.81;5110149;28;20450;-56
2024/01/24 04:32:44;;;;;;;1.57;1.47;;;;;;;-4.75;100.00;100404.50;5110311;28;20862;-56
2024/01/24 04:35:11;;;;;;;1.47;1.33;;;;;;;-4.71;100.00;100417.03;5109961;28;20447;-56
2024/01/24 04:37:38;;;;;;;0.77;0.77;;;;;;;-4.68;100.00;100426.19;5109799;28;21049;-56
2024/01/24 04:40:06;;;;;;;1.30;1.03;;;;;;;-4.64;100.00;100427.94;5109781;28;20474;-57
2024/01/24 04:42:34;;;;;;;0.60;0.60;;;;;;;-4.56;100.00;100427.19;5109506;28;20443;-56
2024/01/24 04:45:01;;;;;;;1.13;1.10;;;;;;;-4.46;100.00;100423.13;5108911;28;20450;-56
2024/01/24 04:47:28;;;;;;;0.13;0.13;;;;;;;-4.35;100.00;100416.56;5109679;28;20975;-56
2024/01/24 04:49:55;;;;;;;0.43;0.43;;;;;;;-4.35;100.00;100411.59;5109929;28;20455;-56
2024/01/24 04:52:21;;;;;;;0.57;0.57;;;;;;;-4.19;100.00;100412.59;5109818;28;20478;-56
2024/01/24 04:54:48;;;;;;;0.47;0.47;;;;;;;-4.13;100.00;100421.75;5109495;28;20910;-56
2024/01/24 04:57:15;;;;;;;1.13;1.00;;;;;;;-4.12;100.00;100428.44;5109826;28;20450;-56
2024/01/24 04:59:43;;;;;;;1.43;1.33;;;;;;;-4.10;100.00;100424.31;5109365;28;20451;-56
2024/01/24 05:02:10;;;;;;;0.83;0.73;;;;;;;-4.10;100.00;100426.81;5109503;28;20451;-56
2024/01/24 05:04:37;;;;;;;0.40;0.40;;;;;;;-4.03;100.00;100418.53;5109191;28;20545;-57
2024/01/24 05:07:04;;;;;;;0.37;0.37;;;;;;;-4.08;100.00;100427.63;5109220;28;20829;-56
2024/01/24 05:09:31;;;;;;;0.73;0.67;;;;;;;-4.07;100.00;100431.84;5109274;28;20502;-57
2024/01/24 05:11:57;;;;;;;1.70;1.03;;;;;;;-4.09;100.00;100423.47;5109466;28;20459;-57
2024/01/24 05:14:24;;;;;;;0.33;0.33;;;;;;;-4.00;100.00;100425.22;5109227;28;20495;-56
2024/01/24 05:16:52;;;;;;;0.27;0.27;;;;;;;-3.89;100.00;100431.97;5109656;28;20455;-56
2024/01/24 05:19:19;;;;;;;2.07;0.77;;;;;;;-3.93;100.00;100429.44;5109121;28;20447;-56
2024/01/24 05:21:46;;;;;;;0.33;0.33;;;;;;;-3.90;100.00;100430.31;5109532;28;20465;-56
2024/01/24 05:24:13;;;;;;;1.37;0.43;;;;;;;-3.90;100.00;100430.31;5109393;28;20443;-56
2024/01/24 05:26:40;;;;;;;0.83;0.83;;;;;;;-3.88;100.00;100428.66;5109171;28;20466;-56
2024/01/24 05:29:07;;;;;;;0.97;0.97;;;;;;;-3.92;100.00;100429.47;5109096;28;20490;-56
2024/01/24 05:31:34;;;;;;;0.27;0.27;;;;;;;-3.98;100.00;100431.91;5109156;28;20560;-56
2024/01/24 05:34:03;;;;;;;0.53;0.47;;;;;;;-3.93;100.00;100439.41;5109105;28;20485;-56
2024/01/24 05:36:30;;;;;;;3.47;1.23;;;;;;;-3.87;100.00;100439.47;5108867;28;20446;-56
2024/01/24 05:38:57;;;;;;;1.03;0.97;;;;;;;-3.85;100.00;100452.00;5109313;28;20455;-56
2024/01/24 05:41:24;;;;;;;0.93;0.83;;;;;;;-3.82;100.00;100444.53;5108946;28;20451;-56
2024/01/24 05:43:50;;;;;;;1.03;0.93;;;;;;;-3.80;100.00;100447.88;5108755;28;20473;-56
2024/01/24 05:46:17;;;;;;;0.37;0.37;;;;;;;-3.80;100.00;100450.38;5108799;28;20869;-56
2024/01/24 05:48:44;;;;;;;2.60;0.87;;;;;;;-3.82;100.00;100447.84;5108896;28;20498;-56
2024/01/24 05:51:13;;;;;;;3.10;1.67;;;;;;;-3.80;100.00;100450.38;5108926;28;20462;-56
2024/01/24 05:53:41;;;;;;;0.80;0.70;;;;;;;-3.80;100.00;100450.38;5108744;28;20443;-56
2024/01/24 05:56:08;;;;;;;1.53;1.43;;;;;;;-3.88;100.00;100455.28;5111644;28;20504;-56
2024/01/24 05:58:36;;;;;;;1.20;1.10;;;;;;;-4.01;100.00;100461.84;5112825;28;21053;-56
2024/01/24 06:01:03;;;;;;;2.27;0.47;;;;;;;-4.18;100.00;100478.34;5112882;27;20455;-56
2024/01/24 06:03:30;;;;;;;1.73;1.23;;;;;;;-4.11;100.00;100470.06;5113266;28;20458;-56
2024/01/24 06:05:57;;;;;;;0.67;0.67;;;;;;;-4.15;100.00;100466.72;5113060;28;20447;-56
2024/01/24 06:08:25;;;;;;;1.87;0.60;;;;;;;-4.27;100.00;100468.25;5112805;27;20506;-56
2024/01/24 06:10:52;;;;;;;1.03;1.03;;;;;;;-4.27;100.00;100468.25;5112835;28;20470;-56
2024/01/24 06:13:19;;;;;;;2.30;1.43;;;;;;;-4.36;100.00;100469.84;5112684;28;20987;-56
2024/01/24 06:15:46;;;;;;;0.93;0.60;;;;;;;-4.67;100.00;100467.81;5112880;28;20457;-56
2024/01/24 06:18:13;;;;;;;2.13;0.93;;;;;;;-4.74;100.00;100476.03;5112565;28;20848;-56
2024/01/24 06:20:39;;;;;;;0.93;0.67;;;;;;;-4.51;100.00;100472.13;5112533;28;20443;-56
2024/01/24 06:23:06;;;;;;;1.27;1.17;;;;;;;-4.50;100.00;100470.50;5112492;28;20451;-56
2024/01/24 06:25:34;;;;;;;0.53;0.50;;;;;;;-4.69;100.00;100475.25;5112667;28;20455;-56
2024/01/24 06:28:01;;;;;;;0.30;0.30;;;;;;;-4.55;100.00;100477.94;5112362;28;20841;-56
2024/01/24 06:30:28;;;;;;;1.70;1.20;;;;;;;-4.48;100.00;100474.69;5112611;28;20447;-56
2024/01/24 06:32:55;;;;;;;0.70;0.70;;;;;;;-4.45;100.00;100474.72;5112214;28;20450;-56
2024/01/24 06:35:21;;;;;;;0.77;0.73;;;;;;;-4.29;100.00;100469.91;5112479;28;20447;-56
2024/01/24 06:37:49;;;;;;;0.87;0.77;;;;;;;-4.32;100.00;100476.53;5112444;28;20455;-56
2024/01/24 06:40:18;;;;;;;0.43;0.43;;;;;;;-4.22;100.00;100466.63;5112256;28;20529;-56
2024/01/24 06:42:46;;;;;;;0.40;0.40;;;;;;;-4.13;100.00;100466.72;5112315;28;20837;-56
2024/01/24 06:45:13;;;;;;;0.50;0.50;;;;;;;-4.03;100.00;100473.47;5112152;28;20443;-56
2024/01/24 06:47:40;;;;;;;1.00;0.93;;;;;;;-4.01;100.00;100466.84;5112068;28;20451;-56
2024/01/24 06:50:08;;;;;;;1.27;0.50;;;;;;;-4.05;100.00;100460.13;5112099;28;20486;-56
2024/01/24 06:52:35;;;;;;;0.90;0.90;;;;;;;-4.04;100.00;100470.97;5111906;27;20439;-55
2024/01/24 06:55:02;;;;;;;1.20;1.10;;;;;;;-3.90;100.00;100470.28;5111777;28;20467;-56
2024/01/24 06:57:29;;;;;;;1.53;1.03;;;;;;;-3.75;100.00;100468.72;5111986;28;20983;-55
2024/01/24 06:59:57;;;;;;;1.10;1.07;;;;;;;-3.56;100.00;100465.53;5112188;28;20447;-55
2024/01/24 07:02:24;;;;;;;0.67;0.67;;;;;;;-3.51;100.00;100458.91;5111846;28;20451;-56
2024/01/24 07:04:51;;;;;;;0.50;0.50;;;;;;;-3.39;100.00;100452.34;5111850;28;20459;-56
2024/01/24 07:07:18;;;;;;;0.73;0.73;;;;;;;-3.46;100.00;100452.28;5111264;27;20474;-56
2024/01/24 07:09:45;;;;;;;0.50;0.50;;;;;;;-3.30;100.00;100447.38;5111666;28;20482;-57
2024/01/24 07:12:13;;;;;;;1.10;1.10;;;;;;;-3.11;100.00;100444.16;5111915;28;20520;-56
2024/01/24 07:14:40;;;;;;;0.83;0.83;;;;;;;-3.21;100.00;100452.44;5111450;27;20942;-57
2024/01/24 07:17:08;;;;;;;0.60;0.57;;;;;;;-2.92;100.00;100464.28;5111588;28;20443;-56
2024/01/24 07:19:35;;;;;;;6.60;1.80;;;;;;;-2.86;100.00;100474.31;5111383;28;20979;-56
2024/01/24 07:22:02;;;;;;;0.87;0.40;;;;;;;-2.67;100.00;100475.25;5111616;28;20462;-56
2024/01/24 07:24:28;;;;;;;1.30;1.20;;;;;;;-2.61;100.00;100480.25;5111492;28;20847;-56
2024/01/24 07:26:56;;;;;;;1.97;1.27;;;;;;;-2.37;100.00;100484.50;5111203;28;20482;-56
2024/01/24 07:29:23;;;;;;;3.83;3.00;;;;;;;-2.14;100.00;100482.91;5111482;28;20486;-56
2024/01/24 07:31:50;;;;;;;1.50;1.40;;;;;;;-1.88;100.00;100474.59;5111727;27;20450;-56
2024/01/24 07:34:18;;;;;;;2.37;1.87;;;;;;;-1.75;100.00;100481.25;5111124;28;20475;-56
2024/01/24 07:36:44;;;;;;;5.57;3.73;;;;;;;-1.63;100.00;100481.28;5111583;28;20447;-56
2024/01/24 07:39:11;;;;;;;7.83;4.87;;;;;;;-1.44;100.00;100492.13;5111361;28;20455;-56
2024/01/24 07:41:38;;;;;;;3.47;2.83;;;;;;;-1.28;100.00;100498.00;5111092;28;20991;-56
2024/01/24 07:44:05;;;;;;;7.57;3.73;;;;;;;-1.12;100.00;100497.97;5110751;28;20444;-56
2024/01/24 07:46:33;;;;;;;3.27;2.77;;;;;;;-1.08;100.00;100507.13;5110879;28;20208;-56
2024/01/24 07:48:59;;;;;;;4.53;2.63;;;;;;;-0.97;100.00;100518.00;5110718;28;20233;-56
2024/01/24 07:51:28;;;;;;;1.97;1.63;;;;;;;-0.93;100.00;100514.66;5110933;28;20205;-56
2024/01/24 07:53:54;;;;;;;2.03;1.87;;;;;;;-0.95;100.00;100518.84;5110904;28;20285;-56
2024/01/24 07:56:21;;;;;;;1.00;1.00;;;;;;;-1.11;100.00;100517.19;5110898;28;20478;-56
2024/01/24 07:58:48;;;;;;;2.47;1.83;;;;;;;-1.05;100.00;100522.19;5110624;28;20220;-56
2024/01/24 08:01:17;;;;;;;1.73;1.63;;;;;;;-1.03;100.00;100521.34;5110732;28;20205;-56
2024/01/24 08:03:44;;;;;;;2.50;2.13;;;;;;;-1.06;100.00;100528.06;5110590;28;20224;-56
2024/01/24 08:06:10;;;;;;;2.07;1.67;;;;;;;-1.05;100.00;100524.69;5110782;28;20674;-56
2024/01/24 08:08:39;;;;;;;2.53;1.37;;;;;;;-1.00;100.00;100518.00;5110679;28;20451;-56
2024/01/24 08:11:06;;;;;;;1.00;0.80;;;;;;;-1.03;100.00;100528.06;5110566;28;20333;-56
2024/01/24 08:13:34;;;;;;;1.40;1.30;;;;;;;-0.84;100.00;100531.34;5110544;27;20276;-56
2024/01/24 08:16:01;;;;;;;3.10;1.90;;;;;;;-0.86;100.00;100530.53;5110330;28;20198;-56
2024/01/24 08:18:27;;;;;;;1.07;1.07;;;;;;;-0.94;100.00;100528.03;5109541;28;20193;-56
2024/01/24 08:20:55;;;;;;;7.67;2.50;;;;;;;-0.74;100.00;100531.31;5110398;28;20201;-56
2024/01/24 08:23:22;;;;;;;3.70;2.23;;;;;;;-0.54;100.00;100520.38;5110182;28;20231;-57
2024/01/24 08:25:50;;;;;;;4.10;2.87;;;;;;;-0.33;100.00;100517.78;5110194;28;20229;-56
2024/01/24 08:28:17;;;;;;;2.23;1.77;;;;;;;-0.08;100.00;100517.66;5110226;28;20193;-57
2024/01/24 08:30:44;;;;;;;3.20;2.53;;;;;;;0.11;100.00;100518.38;5110173;28;20232;-57
2024/01/24 08:33:10;;;;;;;3.37;2.20;;;;;;;0.03;100.00;100520.97;5110204;28;20591;-56
2024/01/24 08:35:37;;;;;;;2.43;2.07;;;;;;;0.33;100.00;100529.13;5109946;28;20197;-56
2024/01/24 08:38:04;;;;;;;1.40;1.23;;;;;;;0.52;100.00;100513.03;5109793;28;20710;-57
2024/01/24 08:40:31;;;;;;;4.57;2.57;;;;;;;0.66;100.00;100517.97;5109764;28;20198;-56
2024/01/24 08:42:59;;;;;;;6.87;2.80;;;;;;;0.80;100.00;100516.16;5110120;28;20204;-57
2024/01/24 08:45:26;;;;;;;2.97;1.50;;;;;;;1.01;100.00;100510.06;5109954;28;20193;-57
2024/01/24 08:47:53;;;;;;;4.73;3.13;;;;;;;1.22;100.00;100523.28;5109623;27;20212;-57
2024/01/24 08:50:22;;;;;;;3.73;2.20;;;;;;;1.22;100.00;100518.25;5109360;28;20616;-57
2024/01/24 08:52:49;;;;;;;2.33;2.13;;;;;;;1.28;100.00;100523.22;5109670;28;20189;-57
2024/01/24 08:55:17;;;;;;;3.17;2.17;;;;;;;1.32;100.00;100519.81;5109703;28;20675;-57
2024/01/24 08:57:44;;;;;;;2.20;1.93;;;;;;;1.55;100.00;100525.44;5109735;28;20701;-57
2024/01/24 09:00:13;;;;;;;2.50;1.87;;;;;;;1.77;100.00;100517.59;5109723;27;20204;-57
2024/01/24 09:02:40;;;;;;;3.13;1.60;;;;;;;1.96;100.00;100524.06;5109646;28;20592;-57
2024/01/24 09:05:08;;;;;;;2.33;2.10;;;;;;;2.00;100.00;100519.78;5109874;28;20197;-58
2024/01/24 09:07:35;;;;;;;3.77;2.23;;;;;;;2.06;100.00;100526.44;5109606;28;20229;-56
2024/01/24 09:10:03;;;;;;;2.77;2.37;;;;;;;2.07;100.00;100536.53;5109506;28;20232;-57
2024/01/24 09:12:30;;;;;;;4.33;2.27;;;;;;;2.09;100.00;100523.88;5109384;28;20207;-56
2024/01/24 09:14:57;;;;;;;2.77;1.93;;;;;;;2.17;100.00;100534.69;5109396;28;20297;-57
2024/01/24 09:17:25;;;;;;;2.37;2.17;;;;;;;2.06;100.00;100536.53;5109387;28;20705;-57
2024/01/24 09:19:52;;;;;;;4.17;1.50;;;;;;;2.11;100.00;100533.09;5109547;28;20201;-57
2024/01/24 09:22:19;;;;;;;3.63;1.83;;;;;;;2.17;100.00;100527.13;5109209;28;20209;-57
2024/01/24 09:24:46;;;;;;;3.83;2.43;;;;;;;2.00;100.00;100532.41;5109210;28;20666;-56
2024/01/24 09:27:13;;;;;;;2.00;1.83;;;;;;;1.98;100.00;100522.34;5109143;28;20201;-58
2024/01/24 09:29:40;;;;;;;2.83;2.63;;;;;;;1.99;100.00;100518.97;5109137;28;20229;-57
2024/01/24 09:32:07;;;;;;;2.80;2.07;;;;;;;1.98;100.00;100517.31;5108984;28;20228;-56
2024/01/24 09:34:35;;;;;;;3.03;2.10;;;;;;;2.14;100.00;100512.03;5109130;28;20201;-57
2024/01/24 09:37:02;;;;;;;6.07;2.90;;;;;;;2.04;100.00;100508.81;5109158;28;20224;-57
2024/01/24 09:39:28;;;;;;;7.17;2.40;;;;;;;2.16;100.00;100505.28;5109025;28;20208;-57
2024/01/24 09:41:57;;;;;;;3.67;2.50;;;;;;;2.18;100.00;100504.41;5108815;28;20670;-56
2024/01/24 09:44:26;;;;;;;2.77;2.30;;;;;;;2.23;100.00;100491.72;5109113;28;20236;-57
2024/01/24 09:46:55;;;;;;;5.70;2.67;;;;;;;2.11;100.00;100489.38;5109354;28;20201;-56
2024/01/24 09:49:22;;;;;;;2.40;1.73;;;;;;;2.32;100.00;100478.94;5108796;28;20604;-57
2024/01/24 09:51:53;;;;;;;3.50;2.07;;;;;;;2.44;100.00;100482.97;5109256;28;20306;-56
2024/01/24 09:54:20;;;;;;;2.27;2.07;;;;;;;2.22;100.00;100480.78;5108863;28;20205;-56
2024/01/24 09:56:49;;;;;;;2.90;2.60;;;;;;;2.52;100.00;100475.28;5109077;28;20229;-56
2024/01/24 09:59:16;;;;;;;3.13;2.30;;;;;;;2.38;100.00;100470.44;5109090;28;20313;-57
2024/01/24 10:01:42;;;;;;;6.13;2.40;;;;;;;2.07;100.00;100462.53;5109017;28;20224;-57
2024/01/24 10:04:14;;;;;;;3.10;1.90;;;;;;;2.17;100.00;100459.84;5108650;28;20205;-57
2024/01/24 10:06:41;;;;;;;4.23;2.97;;;;;;;2.25;100.00;100454.69;5109015;28;20192;-56
2024/01/24 10:09:09;;;;;;;4.03;1.97;;;;;;;2.23;100.00;100456.38;5108651;28;20228;-57
2024/01/24 10:11:36;;;;;;;5.43;1.90;;;;;;;2.49;100.00;100449.22;5108544;28;20624;-57
2024/01/24 10:14:03;;;;;;;3.33;2.07;;;;;;;2.75;100.00;100445.41;5108653;28;20204;-57
2024/01/24 10:16:30;;;;;;;7.17;2.67;;;;;;;2.74;100.00;100441.22;5108619;28;20201;-56
2024/01/24 10:18:57;;;;;;;2.73;2.10;;;;;;;2.76;100.00;100436.94;5108683;28;20205;-57
2024/01/24 10:21:25;;;;;;;3.00;2.40;;;;;;;2.60;100.00;100435.59;5108773;28;20201;-56
2024/01/24 10:23:54;;;;;;;8.13;2.83;;;;;;;2.65;100.00;100423.72;5108684;28;20197;-57
2024/01/24 10:26:22;;;;;;;6.97;2.43;;;;;;;2.69;100.00;100412.69;5108583;28;20217;-57
2024/01/24 10:28:50;;;;;;;5.13;2.30;;;;;;;2.84;100.00;100419.97;5108429;28;20205;-57
2024/01/24 10:31:19;;;;;;;5.73;2.57;;;;;;;2.95;100.00;100423.13;5108500;28;20233;-57
2024/01/24 10:33:48;;;;;;;5.80;2.67;;;;;;;3.21;100.00;100415.91;5108629;28;20670;-57
2024/01/24 10:36:15;;;;;;;4.73;2.67;;;;;;;3.49;100.00;100416.13;5108605;28;20670;-57
2024/01/24 10:38:48;;;;;;;3.53;2.77;;;;;;;3.79;100.00;100422.22;5108476;28;20202;-57
2024/01/24 10:41:16;;;;;;;6.87;2.97;;;;;;;3.94;100.00;100426.09;5108847;28;20221;-57
2024/01/24 10:43:51;;;;;;;6.30;2.73;;;;;;;3.23;100.00;100415.00;5111888;28;20201;-58
2024/01/24 10:46:18;;;;;;;4.40;2.83;;;;;;;3.20;100.00;100407.47;5112234;28;20701;-57
2024/01/24 10:48:45;;;;;;;8.60;3.70;;;;;;;3.14;100.00;100392.41;5112176;28;20201;-57
2024/01/24 10:51:13;;;;;;;5.90;3.10;;;;;;;3.35;100.00;100396.22;5111862;28;20232;-57
2024/01/24 10:53:41;;;;;;;3.17;2.53;;;;;;;3.47;100.00;100400.19;5111872;28;20197;-57
2024/01/24 10:56:09;;;;;;;6.43;4.37;;;;;;;3.40;100.00;100402.84;5111990;28;20193;-57
2024/01/24 10:58:36;;;;;;;9.53;3.63;;;;;;;3.50;100.00;100402.63;5112400;28;20213;-57
2024/01/24 11:01:04;;;;;;;8.83;3.37;;;;;;;3.43;100.00;100399.38;5111931;28;20197;-57
2024/01/24 11:03:32;;;;;;;6.00;3.93;;;;;;;3.50;100.00;100383.22;5112155;27;20204;-57
2024/01/24 11:06:02;;;;;;;6.70;3.03;;;;;;;3.51;100.00;100371.41;5111930;28;20227;-57
2024/01/24 11:08:34;;;;;;;8.07;3.43;;;;;;;3.34;100.00;100370.09;5111963;28;20580;-57
2024/01/24 11:11:14;;;;;;;7.50;3.77;;;;;;;3.47;100.00;100367.31;5111844;28;20244;-57
2024/01/24 11:13:43;;;;;;;6.97;3.30;;;;;;;3.48;100.00;100366.44;5111695;27;20200;-57
2024/01/24 11:16:37;;;;;;;4.43;2.63;;;;;;;3.30;100.00;100368.50;5111592;28;20308;-57
2024/01/24 11:19:20;;;;;;;5.17;3.10;;;;;;;3.21;100.00;100367.88;5111848;28;20201;-57